Time;durP1;ratioP1;P1;durP2;ratioP2;P2;SDS_P1;SDS_P2;PMS_P1;PMS_P2;Temp;Humidity;BMP_temperature;BMP_pressure;BME280_temperature;BME280_humidity;BME280_pressure;Samples;Min_cycle;Max_cycle;Signal;HPM_P1;HPM_P2
2022/05/20 00:00:16;;;;;;;26.50;6.47;;;20.20;28.30;;;;;;5026150;28;20466;-60
2022/05/20 00:02:42;;;;;;;25.90;6.23;;;20.20;28.20;;;;;;5024722;28;21000;-59
2022/05/20 00:05:09;;;;;;;26.57;7.40;;;20.20;28.60;;;;;;5028999;28;20479;-59
2022/05/20 00:07:36;;;;;;;27.03;6.93;;;20.10;28.80;;;;;;5029660;28;20467;-60
2022/05/20 00:10:05;;;;;;;33.97;8.70;;;20.00;28.80;;;;;;5027559;28;20467;-59
2022/05/20 00:12:32;;;;;;;32.07;8.40;;;20.00;29.20;;;;;;5028069;28;20463;-60
2022/05/20 00:14:59;;;;;;;28.23;7.70;;;19.90;29.30;;;;;;5029647;28;20513;-59
2022/05/20 00:17:26;;;;;;;27.27;7.40;;;19.90;29.50;;;;;;5024668;28;20462;-60
2022/05/20 00:19:53;;;;;;;29.60;6.57;;;19.90;29.00;;;;;;5027689;28;20459;-59
2022/05/20 00:22:20;;;;;;;27.63;6.50;;;19.90;28.10;;;;;;5030253;28;20482;-59
2022/05/20 00:27:32;;;;;;;26.00;6.80;;;19.90;27.40;;;;;;5025890;28;20490;-60
2022/05/20 00:29:59;;;;;;;26.50;6.17;;;19.90;27.10;;;;;;5028759;28;20983;-60
2022/05/20 00:32:26;;;;;;;27.90;5.97;;;19.80;26.80;;;;;;5026277;28;20997;-59
2022/05/20 00:34:53;;;;;;;28.90;7.60;;;19.80;26.60;;;;;;5028336;28;20478;-59
2022/05/20 00:37:19;;;;;;;26.07;6.30;;;19.80;26.60;;;;;;5029957;28;20458;-60
2022/05/20 00:39:46;;;;;;;25.83;7.10;;;19.80;26.80;;;;;;5028474;28;20465;-60
2022/05/20 00:42:15;;;;;;;25.93;6.90;;;19.70;26.90;;;;;;5024219;28;20490;-59
2022/05/20 00:44:44;;;;;;;25.40;6.83;;;19.70;27.60;;;;;;5028437;28;21263;-60
2022/05/20 00:47:12;;;;;;;26.00;6.10;;;19.70;27.70;;;;;;5025752;28;20459;-60
2022/05/20 00:49:43;;;;;;;29.37;6.47;;;19.60;27.40;;;;;;5028897;28;20467;-60
2022/05/20 00:52:12;;;;;;;25.67;5.57;;;19.60;27.30;;;;;;5029024;28;20489;-60
2022/05/20 00:54:43;;;;;;;26.60;6.03;;;19.60;27.80;;;;;;5029182;28;20487;-60
2022/05/20 00:57:14;;;;;;;26.80;5.70;;;19.60;26.90;;;;;;5028761;28;20965;-59
2022/05/20 00:59:48;;;;;;;25.73;6.97;;;19.60;26.60;;;;;;5026110;28;20858;-59
2022/05/20 01:02:18;;;;;;;25.77;7.10;;;19.60;26.60;;;;;;5021846;28;20478;-59
2022/05/20 01:04:45;;;;;;;26.73;7.27;;;19.50;27.30;;;;;;5028687;28;20491;-59
2022/05/20 01:07:13;;;;;;;25.67;6.43;;;19.50;27.90;;;;;;5029336;28;20470;-60
2022/05/20 01:09:40;;;;;;;28.27;7.90;;;19.40;28.10;;;;;;5025042;28;21184;-60
2022/05/20 01:12:09;;;;;;;26.30;6.43;;;19.30;28.40;;;;;;5023654;28;20481;-60
2022/05/20 01:14:36;;;;;;;27.00;5.80;;;19.30;29.00;;;;;;5028019;28;20466;-60
2022/05/20 01:17:05;;;;;;;26.43;5.80;;;19.40;28.50;;;;;;5028740;28;20462;-59
2022/05/20 01:19:36;;;;;;;26.20;5.97;;;19.30;28.50;;;;;;5026755;28;20837;-60
2022/05/20 01:22:05;;;;;;;26.57;5.43;;;19.20;28.40;;;;;;5029094;28;20494;-59
2022/05/20 01:24:34;;;;;;;27.90;6.40;;;19.20;28.10;;;;;;5027621;28;20483;-60
2022/05/20 01:27:01;;;;;;;27.20;5.50;;;19.20;28.10;;;;;;5028701;28;20459;-60
2022/05/20 01:29:28;;;;;;;28.70;6.20;;;19.20;28.10;;;;;;5026261;28;21000;-59
2022/05/20 01:31:54;;;;;;;26.80;5.53;;;19.20;28.20;;;;;;5025793;28;20464;-60
2022/05/20 01:34:21;;;;;;;27.43;7.53;;;19.20;28.00;;;;;;5027587;28;20490;-60
2022/05/20 01:36:48;;;;;;;25.40;5.57;;;19.10;28.20;;;;;;5027913;28;20459;-59
2022/05/20 01:39:16;;;;;;;25.80;6.30;;;19.10;28.50;;;;;;5023653;28;20458;-60
2022/05/20 01:41:51;;;;;;;26.43;6.07;;;19.10;28.40;;;;;;5027548;28;20495;-60
2022/05/20 01:44:23;;;;;;;26.50;6.50;;;19.10;28.50;;;;;;5024421;28;20560;-60
2022/05/20 01:46:56;;;;;;;26.57;5.80;;;19.10;28.10;;;;;;5029084;28;20455;-61
2022/05/20 01:49:35;;;;;;;25.60;5.80;;;19.10;28.10;;;;;;5028156;28;20459;-61
2022/05/20 01:52:09;;;;;;;27.23;6.03;;;19.10;28.70;;;;;;5026373;28;20481;-60
2022/05/20 01:54:44;;;;;;;31.33;6.30;;;19.10;27.90;;;;;;5028649;28;20490;-59
2022/05/20 01:57:19;;;;;;;29.20;7.20;;;19.00;28.00;;;;;;5027733;28;20973;-60
2022/05/20 01:59:50;;;;;;;27.43;6.83;;;19.00;28.20;;;;;;5022899;28;20466;-60
2022/05/20 02:02:25;;;;;;;26.60;5.90;;;18.90;28.40;;;;;;5023392;28;20509;-60
2022/05/20 02:04:57;;;;;;;26.00;6.43;;;18.90;28.50;;;;;;5022236;28;20485;-61
2022/05/20 02:07:28;;;;;;;27.80;6.57;;;18.90;28.50;;;;;;5026244;28;20459;-61
2022/05/20 02:10:01;;;;;;;28.20;7.27;;;18.90;29.00;;;;;;5022607;28;20463;-60
2022/05/20 02:12:36;;;;;;;27.37;6.90;;;18.90;28.80;;;;;;5026874;28;20462;-59
2022/05/20 02:15:08;;;;;;;29.07;8.10;;;18.90;28.70;;;;;;5024323;28;20918;-60
2022/05/20 02:17:37;;;;;;;26.10;6.17;;;18.90;28.50;;;;;;5024556;28;20474;-59
2022/05/20 02:20:10;;;;;;;27.33;7.03;;;18.90;28.50;;;;;;5026914;28;20458;-61
2022/05/20 02:22:41;;;;;;;27.03;6.43;;;18.80;28.40;;;;;;5025153;28;20478;-60
2022/05/20 02:25:19;;;;;;;26.90;6.70;;;18.80;28.50;;;;;;5027241;28;20485;-60
2022/05/20 02:27:51;;;;;;;26.50;6.30;;;18.80;28.90;;;;;;5022868;28;20857;-61
2022/05/20 02:30:20;;;;;;;28.03;7.20;;;18.80;29.10;;;;;;5026536;28;20467;-61
2022/05/20 02:32:49;;;;;;;27.80;5.80;;;18.80;29.00;;;;;;5023695;28;20646;-61
2022/05/20 02:35:16;;;;;;;27.23;7.00;;;18.80;29.10;;;;;;5024007;28;20992;-61
2022/05/20 02:37:43;;;;;;;28.77;6.73;;;18.70;29.10;;;;;;5025120;28;20455;-62
2022/05/20 02:40:13;;;;;;;26.43;7.07;;;18.70;29.20;;;;;;5027034;28;20463;-61
2022/05/20 02:42:40;;;;;;;26.10;6.50;;;18.70;29.50;;;;;;5024763;28;20482;-61
2022/05/20 02:45:09;;;;;;;26.23;6.57;;;18.60;29.60;;;;;;5027230;28;20562;-61
2022/05/20 02:47:37;;;;;;;27.80;7.00;;;18.60;29.80;;;;;;5021528;28;20466;-60
2022/05/20 02:50:07;;;;;;;26.40;7.00;;;18.50;30.10;;;;;;5024996;28;21219;-61
2022/05/20 02:52:34;;;;;;;26.17;6.40;;;18.50;30.30;;;;;;5025178;28;20466;-60
2022/05/20 02:55:01;;;;;;;28.47;6.40;;;18.40;30.40;;;;;;5023128;28;20479;-60
2022/05/20 02:57:28;;;;;;;26.80;7.27;;;18.40;30.60;;;;;;5019914;28;20474;-60
2022/05/20 03:05:25;;;;;;;25.53;6.80;;;18.20;31.10;;;;;;5026692;28;20477;-60
2022/05/20 03:07:51;;;;;;;24.90;6.70;;;18.20;31.20;;;;;;5026228;28;20849;-61
2022/05/20 03:10:18;;;;;;;27.03;6.90;;;18.20;31.40;;;;;;5025398;28;20459;-61
2022/05/20 03:12:45;;;;;;;27.03;7.40;;;18.10;32.00;;;;;;5022943;28;20493;-60
2022/05/20 03:15:14;;;;;;;27.90;7.57;;;18.10;32.00;;;;;;5025868;28;20493;-61
2022/05/20 03:17:43;;;;;;;26.43;7.67;;;18.00;32.10;;;;;;5026203;28;20486;-60
2022/05/20 03:20:11;;;;;;;25.97;7.40;;;18.00;32.20;;;;;;5024260;28;20559;-61
2022/05/20 03:22:38;;;;;;;28.97;8.77;;;18.00;32.10;;;;;;5025301;28;20464;-61
2022/05/20 03:25:06;;;;;;;26.00;7.00;;;18.00;32.40;;;;;;5025536;28;20490;-59
2022/05/20 03:27:33;;;;;;;27.90;8.37;;;17.90;32.50;;;;;;5025573;28;20872;-61
2022/05/20 03:30:00;;;;;;;27.77;8.27;;;18.00;32.60;;;;;;5020286;28;20987;-60
2022/05/20 03:32:27;;;;;;;26.40;7.90;;;18.00;32.70;;;;;;5025533;28;20479;-61
2022/05/20 03:34:57;;;;;;;27.50;8.27;;;18.00;33.00;;;;;;5024072;28;20527;-60
2022/05/20 03:37:24;;;;;;;27.77;8.77;;;17.90;33.70;;;;;;5026222;28;20455;-61
2022/05/20 03:39:51;;;;;;;27.77;8.77;;;17.90;33.60;;;;;;5025430;28;20529;-60
2022/05/20 03:42:19;;;;;;;26.67;7.90;;;17.80;33.60;;;;;;5026249;28;20467;-61
2022/05/20 03:44:45;;;;;;;27.50;9.50;;;17.80;33.90;;;;;;5021910;28;20557;-60
2022/05/20 03:47:12;;;;;;;29.27;8.60;;;17.80;34.00;;;;;;5024939;28;20466;-61
2022/05/20 03:49:39;;;;;;;30.70;10.37;;;17.80;34.00;;;;;;5020370;28;20467;-63
2022/05/20 03:52:07;;;;;;;30.10;10.57;;;17.70;34.10;;;;;;5027208;28;20463;-61
2022/05/20 03:54:34;;;;;;;27.93;8.07;;;17.80;34.10;;;;;;5023054;28;20485;-61
2022/05/20 03:57:02;;;;;;;31.37;8.60;;;17.80;34.00;;;;;;5024495;28;21012;-62
2022/05/20 03:59:29;;;;;;;26.90;7.97;;;17.80;34.10;;;;;;5026099;28;21131;-62
2022/05/20 04:01:59;;;;;;;29.13;8.40;;;17.90;33.90;;;;;;5018664;28;20477;-61
2022/05/20 04:04:30;;;;;;;29.97;8.33;;;17.90;34.00;;;;;;5021322;28;20486;-62
2022/05/20 04:06:58;;;;;;;28.30;8.03;;;17.90;34.30;;;;;;5022671;28;20463;-61
2022/05/20 04:09:26;;;;;;;27.27;7.60;;;17.90;34.10;;;;;;5031868;28;20453;-64
2022/05/20 04:11:55;;;;;;;28.93;7.77;;;18.00;33.90;;;;;;5027483;28;20914;-62
2022/05/20 04:14:23;;;;;;;28.20;8.17;;;18.00;33.80;;;;;;5026553;28;20570;-62
2022/05/20 04:16:55;;;;;;;28.87;8.50;;;18.00;33.70;;;;;;5022065;28;20462;-62
2022/05/20 04:19:22;;;;;;;31.70;8.40;;;18.10;33.60;;;;;;5026018;28;20459;-62
2022/05/20 04:21:48;;;;;;;28.73;7.93;;;18.10;33.50;;;;;;5025991;28;20573;-61
2022/05/20 04:24:15;;;;;;;27.80;8.20;;;18.10;33.60;;;;;;5026758;28;20489;-62
2022/05/20 04:26:43;;;;;;;27.80;7.70;;;18.20;33.70;;;;;;5025258;28;20712;-62
2022/05/20 04:29:10;;;;;;;27.93;7.60;;;18.20;33.30;;;;;;5026615;28;20965;-62
2022/05/20 04:31:41;;;;;;;27.83;7.17;;;18.30;33.00;;;;;;5025613;28;20479;-61
2022/05/20 04:34:07;;;;;;;26.90;7.70;;;18.40;33.00;;;;;;5023315;28;20481;-61
2022/05/20 04:36:34;;;;;;;27.67;7.10;;;18.50;32.80;;;;;;5026090;28;20463;-62
2022/05/20 04:39:01;;;;;;;28.93;8.50;;;18.60;32.60;;;;;;5026393;28;20470;-61
2022/05/20 04:46:59;;;;;;;28.07;7.67;;;18.90;31.80;;;;;;5025823;28;20569;-61
2022/05/20 04:49:27;;;;;;;28.07;6.90;;;19.10;31.50;;;;;;5026073;28;20482;-61
2022/05/20 04:51:54;;;;;;;29.50;7.93;;;19.30;31.30;;;;;;5026691;28;20467;-61
2022/05/20 04:57:06;;;;;;;28.83;7.73;;;20.10;29.00;;;;;;5024968;28;20457;-61
2022/05/20 04:59:36;;;;;;;30.67;6.70;;;20.40;27.90;;;;;;5024430;28;20991;-62
2022/05/20 05:02:04;;;;;;;29.10;7.67;;;20.70;27.20;;;;;;5027069;28;20478;-62
2022/05/20 05:04:31;;;;;;;28.93;7.47;;;20.80;26.50;;;;;;5025637;28;20486;-61
2022/05/20 05:06:57;;;;;;;30.80;8.10;;;21.00;26.10;;;;;;5028492;28;20469;-61
2022/05/20 05:09:24;;;;;;;31.53;7.00;;;21.20;25.50;;;;;;5019058;28;20470;-62
2022/05/20 05:11:52;;;;;;;28.10;6.67;;;21.20;25.20;;;;;;5027363;28;20474;-61
2022/05/20 05:14:19;;;;;;;33.93;8.17;;;21.20;25.50;;;;;;5025611;28;20506;-62
2022/05/20 05:16:47;;;;;;;29.23;8.23;;;21.80;25.60;;;;;;5027223;28;20513;-62
2022/05/20 05:19:14;;;;;;;29.10;6.70;;;22.70;23.70;;;;;;5026230;28;20466;-62
2022/05/20 05:21:41;;;;;;;30.47;7.97;;;24.00;20.60;;;;;;5025211;28;20494;-61
2022/05/20 05:24:09;;;;;;;29.10;6.83;;;25.10;18.10;;;;;;5029751;28;20501;-62
2022/05/20 05:26:39;;;;;;;28.67;6.03;;;26.30;15.60;;;;;;5027212;28;20459;-62
2022/05/20 05:29:07;;;;;;;29.33;6.83;;;27.40;14.00;;;;;;5017493;28;20470;-62
2022/05/20 05:31:34;;;;;;;28.10;6.33;;;28.10;12.50;;;;;;5029606;28;21129;-62
2022/05/20 05:34:02;;;;;;;28.23;6.37;;;28.80;11.20;;;;;;5028350;28;20463;-62
2022/05/20 05:36:29;;;;;;;28.37;6.80;;;29.30;9.80;;;;;;5026740;28;20577;-62
2022/05/20 05:38:56;;;;;;;27.90;6.03;;;29.60;9.60;;;;;;5028389;28;20478;-61
2022/05/20 05:41:22;;;;;;;26.77;6.00;;;30.50;8.20;;;;;;5027195;28;20463;-62
2022/05/20 05:43:49;;;;;;;27.90;6.40;;;31.40;7.40;;;;;;5027153;28;20509;-62
2022/05/20 05:46:16;;;;;;;27.57;5.47;;;32.20;6.20;;;;;;5024738;28;20502;-62
2022/05/20 05:48:43;;;;;;;28.97;5.63;;;32.60;5.00;;;;;;5026892;28;20534;-62
2022/05/20 05:51:11;;;;;;;26.70;5.63;;;33.50;3.70;;;;;;5026440;28;20972;-62
2022/05/20 05:53:38;;;;;;;26.43;6.27;;;34.40;2.70;;;;;;5023871;28;20888;-61
2022/05/20 05:56:09;;;;;;;27.30;5.40;;;35.30;1.50;;;;;;5029655;28;20479;-62
2022/05/20 05:58:37;;;;;;;26.33;5.67;;;36.20;1.00;;;;;;5028757;28;20474;-62
2022/05/20 06:01:04;;;;;;;29.43;5.20;;;37.00;1.00;;;;;;5024257;28;20462;-62
2022/05/20 06:03:32;;;;;;;25.57;5.00;;;37.70;1.00;;;;;;5027482;28;20483;-62
2022/05/20 06:05:58;;;;;;;26.60;5.10;;;38.20;1.00;;;;;;5020380;28;20490;-60
2022/05/20 06:08:26;;;;;;;24.80;4.77;;;38.80;1.00;;;;;;5025116;28;20467;-62
2022/05/20 06:10:53;;;;;;;25.53;5.13;;;39.00;1.00;;;;;;5022008;28;20979;-60
2022/05/20 06:13:24;;;;;;;24.63;4.67;;;39.00;1.00;;;;;;5022921;28;20463;-63
2022/05/20 06:15:52;;;;;;;25.80;4.90;;;38.20;1.00;;;;;;5022269;28;20532;-60
2022/05/20 06:18:19;;;;;;;24.37;4.77;;;36.90;1.00;;;;;;5028003;28;20459;-60
2022/05/20 06:20:45;;;;;;;25.30;6.60;;;36.40;1.00;;;;;;5028864;28;20462;-62
2022/05/20 06:23:12;;;;;;;25.43;4.80;;;36.20;1.00;;;;;;5028938;28;20459;-62
2022/05/20 06:25:40;;;;;;;25.03;5.17;;;35.60;1.00;;;;;;5029246;28;20483;-62
2022/05/20 06:28:09;;;;;;;24.50;4.60;;;35.50;1.00;;;;;;5023125;28;20534;-62
2022/05/20 06:30:36;;;;;;;25.10;5.40;;;35.90;1.00;;;;;;5031765;28;20488;-63
2022/05/20 06:33:04;;;;;;;24.07;5.13;;;36.40;1.00;;;;;;5029443;28;20516;-62
2022/05/20 06:41:01;;;;;;;24.37;4.60;;;40.50;1.00;;;;;;5021884;28;20481;-63
2022/05/20 06:43:28;;;;;;;23.20;4.20;;;41.60;1.00;;;;;;5024965;28;20467;-62
2022/05/20 06:45:57;;;;;;;23.20;3.87;;;42.30;1.00;;;;;;5022676;28;21131;-59
2022/05/20 06:48:24;;;;;;;24.57;4.40;;;43.00;1.00;;;;;;5023121;28;20514;-60
2022/05/20 06:50:51;;;;;;;23.10;4.30;;;43.60;1.00;;;;;;5013590;28;20458;-60
2022/05/20 06:53:17;;;;;;;22.90;4.33;;;44.40;1.00;;;;;;5028154;28;20810;-60
2022/05/20 06:55:44;;;;;;;23.37;4.43;;;45.10;1.00;;;;;;5028432;28;20474;-61
2022/05/20 06:58:12;;;;;;;22.10;3.73;;;45.80;1.00;;;;;;5025033;28;20988;-61
2022/05/20 07:00:39;;;;;;;23.33;3.60;;;46.20;1.00;;;;;;5026298;28;20475;-61
2022/05/20 07:03:06;;;;;;;24.13;4.43;;;46.40;1.00;;;;;;5021838;28;20470;-61
2022/05/20 07:05:34;;;;;;;22.50;4.27;;;46.60;1.00;;;;;;5022595;28;20497;-61
2022/05/20 07:08:00;;;;;;;22.40;3.93;;;47.00;1.00;;;;;;5027325;28;20474;-60
2022/05/20 07:10:27;;;;;;;22.53;4.30;;;47.50;1.00;;;;;;5028084;28;20821;-60
2022/05/20 07:12:54;;;;;;;23.07;4.20;;;47.80;1.00;;;;;;5027217;28;20471;-61
2022/05/20 07:15:22;;;;;;;21.43;3.93;;;47.90;1.00;;;;;;5026224;28;21029;-61
2022/05/20 07:17:49;;;;;;;21.67;3.90;;;48.30;1.00;;;;;;5023558;28;20455;-61
2022/05/20 07:20:16;;;;;;;22.40;4.40;;;48.50;1.00;;;;;;5025357;28;20463;-61
2022/05/20 07:22:43;;;;;;;21.67;3.87;;;48.90;1.00;;;;;;5028358;28;20870;-61
2022/05/20 07:25:10;;;;;;;22.63;3.67;;;49.30;1.00;;;;;;5028111;28;20529;-61
2022/05/20 07:27:37;;;;;;;21.47;3.63;;;49.70;1.00;;;;;;5027651;28;20467;-61
2022/05/20 07:30:05;;;;;;;22.43;3.70;;;49.80;1.00;;;;;;5024206;28;20474;-61
2022/05/20 07:32:34;;;;;;;24.47;4.13;;;50.00;1.00;;;;;;5025298;28;20973;-61
2022/05/20 07:35:00;;;;;;;21.67;3.73;;;50.30;1.00;;;;;;5024793;28;20697;-61
2022/05/20 07:37:27;;;;;;;20.70;3.50;;;50.80;1.00;;;;;;5027981;28;20470;-61
2022/05/20 07:39:54;;;;;;;21.67;3.60;;;51.20;1.00;;;;;;5025608;28;20470;-61
2022/05/20 07:42:21;;;;;;;20.43;3.00;;;51.70;1.00;;;;;;5028116;28;20461;-61
2022/05/20 07:44:48;;;;;;;20.80;3.33;;;52.20;1.00;;;;;;5028226;28;20513;-62
2022/05/20 07:47:15;;;;;;;24.00;3.67;;;52.40;1.00;;;;;;5027829;28;20837;-61
2022/05/20 07:49:43;;;;;;;21.00;3.40;;;52.80;1.00;;;;;;5022865;28;20462;-61
2022/05/20 07:52:12;;;;;;;21.00;3.47;;;53.10;1.00;;;;;;5019273;28;20474;-61
2022/05/20 07:54:43;;;;;;;21.00;3.80;;;53.20;1.00;;;;;;5024361;28;20490;-62
2022/05/20 07:57:14;;;;;;;20.47;3.07;;;53.40;1.00;;;;;;5026900;28;20467;-61
2022/05/20 07:59:46;;;;;;;20.77;3.53;;;53.70;1.00;;;;;;5019702;28;20460;-61
2022/05/20 08:02:14;;;;;;;20.77;3.40;;;54.10;1.00;;;;;;5022354;28;21016;-62
2022/05/20 08:04:56;;;;;;;24.23;3.37;;;54.40;1.00;;;;;;5027195;28;20490;-62
2022/05/20 08:07:26;;;;;;;20.80;3.47;;;54.70;1.00;;;;;;5025985;28;20468;-61
2022/05/20 08:09:53;;;;;;;20.63;2.97;;;54.80;1.00;;;;;;5024649;28;20471;-61
2022/05/20 08:12:19;;;;;;;19.47;3.03;;;55.00;1.00;;;;;;5026926;28;20463;-61
2022/05/20 08:14:46;;;;;;;20.40;3.17;;;55.40;1.00;;;;;;5019945;28;20474;-63
2022/05/20 08:17:13;;;;;;;19.90;2.83;;;55.60;1.00;;;;;;5027504;28;20458;-61
2022/05/20 08:19:40;;;;;;;19.80;2.87;;;55.80;1.00;;;;;;5027522;28;20512;-62
2022/05/20 08:22:08;;;;;;;19.20;3.20;;;56.10;1.00;;;;;;5024202;28;20589;-62
2022/05/20 08:24:35;;;;;;;19.70;2.93;;;56.00;1.00;;;;;;5022552;28;20483;-62
2022/05/20 08:27:02;;;;;;;19.20;2.80;;;56.30;1.00;;;;;;5023772;28;20458;-62
2022/05/20 08:29:28;;;;;;;19.00;3.00;;;56.50;1.00;;;;;;5025876;28;20946;-62
2022/05/20 08:31:55;;;;;;;18.77;3.00;;;56.60;1.00;;;;;;5029005;28;20474;-62
2022/05/20 08:34:22;;;;;;;18.83;2.80;;;56.70;1.00;;;;;;5025237;28;20458;-62
2022/05/20 08:36:49;;;;;;;19.50;2.73;;;56.70;1.00;;;;;;5025681;28;21177;-61
2022/05/20 08:39:17;;;;;;;22.07;3.40;;;57.00;1.00;;;;;;5031713;28;20459;-62
2022/05/20 08:41:48;;;;;;;20.47;3.17;;;57.20;1.00;;;;;;5029984;28;20203;-62
2022/05/20 08:44:18;;;;;;;20.80;3.83;;;57.20;1.00;;;;;;5028601;28;20200;-62
2022/05/20 08:46:46;;;;;;;18.40;3.33;;;57.30;1.00;;;;;;5034577;28;20200;-62
2022/05/20 08:49:16;;;;;;;20.80;3.40;;;57.60;1.00;;;;;;5028630;28;20214;-62
2022/05/20 08:51:48;;;;;;;20.10;3.58;;;57.70;1.00;;;;;;5023203;28;20204;-61
2022/05/20 08:54:15;;;;;;;18.92;2.45;;;58.00;1.00;;;;;;5030981;28;20204;-62
2022/05/20 08:56:44;;;;;;;18.48;2.78;;;58.30;1.00;;;;;;5031025;28;20204;-62
2022/05/20 08:59:14;;;;;;;18.10;2.60;;;58.50;1.00;;;;;;5029984;28;20231;-62
2022/05/20 09:01:43;;;;;;;20.85;3.60;;;58.80;1.00;;;;;;5025957;28;20235;-62
2022/05/20 09:04:12;;;;;;;19.05;2.90;;;59.10;1.00;;;;;;5024235;28;20204;-62
2022/05/20 09:06:41;;;;;;;20.67;3.80;;;59.20;1.00;;;;;;5029495;28;20199;-62
2022/05/20 09:09:12;;;;;;;20.38;2.90;;;59.20;1.00;;;;;;5024897;28;20211;-62
2022/05/20 09:11:41;;;;;;;17.90;2.92;;;59.20;1.00;;;;;;5029243;28;20196;-63
2022/05/20 09:17:08;;;;;;;20.40;3.35;;;59.30;1.00;;;;;;5026373;28;20246;-62
2022/05/20 09:19:35;;;;;;;19.92;3.70;;;59.20;1.00;;;;;;5023126;28;20203;-62
2022/05/20 09:22:06;;;;;;;19.30;3.30;;;59.10;1.00;;;;;;5031190;28;20208;-62
2022/05/20 09:24:38;;;;;;;18.90;3.13;;;59.10;1.00;;;;;;5029370;28;20223;-62
2022/05/20 09:27:07;;;;;;;19.52;3.00;;;59.20;1.00;;;;;;5025346;28;20223;-62
2022/05/20 09:29:39;;;;;;;17.98;3.10;;;59.30;1.00;;;;;;5028151;28;20200;-62
2022/05/20 09:32:15;;;;;;;21.02;3.63;;;59.20;1.00;;;;;;5021548;28;20663;-62
2022/05/20 09:34:43;;;;;;;18.30;3.38;;;59.10;1.00;;;;;;5024759;28;20226;-62
2022/05/20 09:37:19;;;;;;;19.90;3.30;;;58.80;1.00;;;;;;5028814;28;20200;-62
2022/05/20 09:39:48;;;;;;;18.70;3.30;;;58.30;1.00;;;;;;5030460;28;20199;-65
2022/05/20 09:42:17;;;;;;;18.60;3.73;;;57.40;1.00;;;;;;5023560;28;20200;-61
2022/05/20 09:44:48;;;;;;;19.63;3.67;;;56.00;1.00;;;;;;5028379;28;20494;-62
2022/05/20 09:47:24;;;;;;;19.80;3.77;;;53.90;1.00;;;;;;5022957;28;20466;-62
2022/05/20 09:49:56;;;;;;;20.97;3.90;;;52.00;1.00;;;;;;5029933;28;20466;-62
2022/05/20 09:52:29;;;;;;;20.60;3.83;;;50.00;1.00;;;;;;5029512;28;20463;-62
2022/05/20 09:55:01;;;;;;;20.90;4.67;;;48.30;1.00;;;;;;5021874;28;20483;-62
2022/05/20 09:57:36;;;;;;;21.63;4.50;;;46.60;1.00;;;;;;5029888;28;20843;-61
2022/05/20 10:00:09;;;;;;;23.17;4.43;;;45.30;1.00;;;;;;5029456;28;21309;-61
2022/05/20 10:02:43;;;;;;;23.03;4.90;;;44.30;1.00;;;;;;5029268;28;21015;-62
2022/05/20 10:05:15;;;;;;;21.83;4.30;;;43.40;1.00;;;;;;5026758;28;20984;-61
2022/05/20 10:07:54;;;;;;;22.33;4.33;;;42.50;1.00;;;;;;5021670;28;20460;-62
2022/05/20 10:10:36;;;;;;;26.00;4.73;;;41.80;1.00;;;;;;5024031;28;20486;-62
2022/05/20 10:13:11;;;;;;;25.83;5.00;;;41.10;1.00;;;;;;5023980;28;20485;-62
2022/05/20 10:15:45;;;;;;;26.83;6.03;;;40.40;1.00;;;;;;5027754;28;20482;-61
2022/05/20 10:18:22;;;;;;;23.50;5.10;;;39.80;1.00;;;;;;5025752;28;20554;-62
2022/05/20 10:20:58;;;;;;;24.77;5.93;;;39.20;1.00;;;;;;5021950;28;20466;-61
2022/05/20 10:23:32;;;;;;;24.10;4.77;;;38.70;1.00;;;;;;5029165;28;20458;-61
2022/05/20 10:26:05;;;;;;;22.73;4.60;;;38.30;1.00;;;;;;5013725;28;20483;-61
2022/05/20 10:34:20;;;;;;;24.80;5.60;;;37.30;1.00;;;;;;5022411;28;20822;-61
2022/05/20 10:36:57;;;;;;;22.97;5.80;;;36.90;1.00;;;;;;5020113;28;20463;-60
2022/05/20 10:39:53;;;;;;;25.03;5.37;;;36.70;1.00;;;;;;5018970;28;20471;-60
2022/05/20 10:42:36;;;;;;;24.03;6.00;;;36.30;1.00;;;;;;4991756;28;20463;-61
2022/05/20 10:48:35;;;;;;;24.03;6.10;;;35.70;1.00;;;;;;5018100;28;20482;-61
2022/05/20 10:51:14;;;;;;;23.53;6.43;;;35.50;1.00;;;;;;4997628;28;20549;-60
2022/05/20 10:53:51;;;;;;;25.20;6.60;;;35.20;1.00;;;;;;5022267;28;20494;-61
2022/05/20 10:56:42;;;;;;;26.87;6.00;;;35.10;1.00;;;;;;5025836;28;20490;-60
2022/05/20 10:59:41;;;;;;;23.93;5.40;;;34.90;1.00;;;;;;5019541;28;20530;-61
2022/05/20 11:02:24;;;;;;;25.20;4.70;;;34.70;1.00;;;;;;5023978;28;20479;-61
2022/05/20 11:05:06;;;;;;;27.30;5.37;;;34.50;1.00;;;;;;5026196;28;20486;-61
2022/05/20 11:08:00;;;;;;;25.50;5.10;;;34.30;1.00;;;;;;5022611;28;20474;-60
2022/05/20 11:10:47;;;;;;;22.97;4.70;;;34.10;1.00;;;;;;5026880;28;20502;-61
2022/05/20 11:13:24;;;;;;;27.57;5.70;;;33.90;1.00;;;;;;5019752;28;20883;-61
2022/05/20 11:16:08;;;;;;;25.80;5.97;;;33.70;1.00;;;;;;5020254;28;20479;-61
2022/05/20 11:18:58;;;;;;;26.60;6.17;;;33.40;1.00;;;;;;5022494;28;20954;-61
2022/05/20 11:21:54;;;;;;;26.23;6.17;;;33.30;1.90;;;;;;5026107;28;20461;-61
2022/05/20 11:24:45;;;;;;;23.90;5.67;;;33.10;2.60;;;;;;5024462;28;20467;-61
2022/05/20 11:27:24;;;;;;;30.97;5.83;;;33.00;3.80;;;;;;5024052;28;20472;-60
2022/05/20 11:30:14;;;;;;;23.63;5.53;;;32.90;3.10;;;;;;5023197;28;20467;-61
2022/05/20 11:33:13;;;;;;;27.87;6.03;;;32.80;2.90;;;;;;5022743;28;20482;-59
2022/05/20 11:35:55;;;;;;;26.50;6.60;;;32.70;3.20;;;;;;5023367;28;20487;-60
2022/05/20 11:38:43;;;;;;;24.17;5.97;;;32.60;2.70;;;;;;5027082;28;20988;-59
2022/05/20 11:41:23;;;;;;;24.57;5.37;;;32.60;4.20;;;;;;5019397;28;20463;-60
2022/05/20 11:44:05;;;;;;;25.40;5.90;;;32.50;3.20;;;;;;5024509;28;20532;-60
2022/05/20 11:46:47;;;;;;;25.10;6.23;;;32.40;3.90;;;;;;5022361;28;20494;-61
2022/05/20 11:49:36;;;;;;;24.50;5.80;;;32.40;3.80;;;;;;5019044;28;20454;-60
2022/05/20 11:52:33;;;;;;;25.10;6.60;;;32.30;3.80;;;;;;5016855;28;21284;-60
2022/05/20 11:55:05;;;;;;;26.73;5.63;;;32.30;4.00;;;;;;5017752;28;20482;-61
2022/05/20 11:57:38;;;;;;;26.73;5.40;;;32.30;2.80;;;;;;5024376;28;20847;-61
2022/05/20 12:00:08;;;;;;;26.37;5.13;;;32.40;2.70;;;;;;5026802;28;20482;-61
2022/05/20 12:02:39;;;;;;;26.80;5.67;;;32.30;2.40;;;;;;5028046;28;20976;-61
2022/05/20 12:05:10;;;;;;;28.33;5.03;;;32.30;1.80;;;;;;5028867;28;20479;-61
2022/05/20 12:07:38;;;;;;;25.40;6.13;;;32.30;2.50;;;;;;5023063;28;20513;-60
2022/05/20 12:10:39;;;;;;;25.27;5.67;;;32.20;2.00;;;;;;5030498;28;20482;-61
2022/05/20 12:13:14;;;;;;;27.80;4.90;;;32.10;2.50;;;;;;5026943;28;20485;-61
2022/05/20 12:15:43;;;;;;;26.00;5.63;;;32.00;2.90;;;;;;5026943;28;20502;-60
2022/05/20 12:24:15;;;;;;;24.87;5.27;;;31.80;2.10;;;;;;5028987;28;20504;-61
2022/05/20 12:26:49;;;;;;;27.00;5.17;;;31.70;2.20;;;;;;5026928;28;20498;-61
2022/05/20 12:29:47;;;;;;;27.60;5.03;;;31.70;1.70;;;;;;5024128;28;20979;-60
2022/05/20 12:32:46;;;;;;;27.23;4.53;;;31.60;1.00;;;;;;5027976;28;20481;-60
2022/05/20 12:35:19;;;;;;;25.77;5.70;;;31.50;1.60;;;;;;4967681;28;20493;-59
2022/05/20 12:38:24;;;;;;;25.83;5.60;;;31.50;2.30;;;;;;5016597;28;20471;-60
2022/05/20 12:40:54;;;;;;;26.33;5.13;;;31.50;2.40;;;;;;5001342;28;20450;-60
2022/05/20 12:43:50;;;;;;;26.30;5.50;;;31.40;1.00;;;;;;5025041;28;20534;-61
2022/05/20 12:46:31;;;;;;;27.90;5.23;;;31.40;2.20;;;;;;5027403;28;20501;-60
2022/05/20 12:48:58;;;;;;;25.57;5.07;;;31.40;2.30;;;;;;5026764;28;20465;-60
2022/05/20 12:51:25;;;;;;;26.40;5.50;;;31.30;1.70;;;;;;5025963;28;20487;-60
2022/05/20 12:53:51;;;;;;;28.50;6.17;;;31.30;2.10;;;;;;5025723;28;20461;-60
2022/05/20 12:56:30;;;;;;;26.03;5.90;;;31.30;2.40;;;;;;5027308;28;20517;-61
2022/05/20 12:59:13;;;;;;;27.43;5.00;;;31.30;3.00;;;;;;5026000;28;20542;-60
2022/05/20 13:01:45;;;;;;;26.87;5.27;;;31.30;2.40;;;;;;5023683;28;20471;-61
2022/05/20 13:04:15;;;;;;;27.10;6.40;;;31.20;2.60;;;;;;5028198;28;20855;-61
2022/05/20 13:06:47;;;;;;;25.70;5.57;;;31.20;2.60;;;;;;5026018;28;20506;-61
2022/05/20 13:09:22;;;;;;;26.40;4.40;;;31.20;3.10;;;;;;5028621;28;20553;-61
2022/05/20 13:11:51;;;;;;;26.50;5.03;;;31.10;1.20;;;;;;5029410;28;20490;-61
2022/05/20 13:14:22;;;;;;;27.70;6.23;;;31.00;2.40;;;;;;5027364;28;20796;-61
2022/05/20 13:16:51;;;;;;;26.30;5.17;;;31.00;2.80;;;;;;5026190;28;21117;-61
2022/05/20 13:19:26;;;;;;;26.80;5.93;;;30.90;2.60;;;;;;5025238;28;20463;-61
2022/05/20 13:21:58;;;;;;;24.70;4.93;;;30.90;2.80;;;;;;5028046;28;20454;-60
2022/05/20 13:24:27;;;;;;;26.80;5.13;;;30.90;3.40;;;;;;5024622;28;20483;-60
2022/05/20 13:27:05;;;;;;;26.20;6.47;;;30.90;2.30;;;;;;5018748;28;20846;-61
2022/05/20 13:29:33;;;;;;;28.33;6.50;;;30.90;1.00;;;;;;5025324;28;20455;-62
2022/05/20 13:32:28;;;;;;;26.30;6.10;;;30.90;1.50;;;;;;5026581;28;20474;-62
2022/05/20 13:34:56;;;;;;;27.07;7.17;;;30.80;1.20;;;;;;5023341;28;20483;-63
2022/05/20 13:37:28;;;;;;;28.03;5.87;;;30.80;2.00;;;;;;5023301;28;20962;-62
2022/05/20 13:40:00;;;;;;;27.30;5.07;;;30.80;1.30;;;;;;5017040;28;20485;-60
2022/05/20 13:42:32;;;;;;;26.07;5.57;;;30.80;2.00;;;;;;5020000;28;20466;-61